sensor_id;sensor_type;location;lat;lon;timestamp;P1;durP1;ratioP1;P2;durP2;ratioP2
41061;SDS011;26812;42.662;23.352;2022-10-15T00:00:02;3.45;;;3.13;;
41061;SDS011;26812;42.662;23.352;2022-10-15T00:02:29;4.15;;;2.67;;
41061;SDS011;26812;42.662;23.352;2022-10-15T00:04:54;3.90;;;3.40;;
41061;SDS011;26812;42.662;23.352;2022-10-15T00:07:19;3.33;;;2.65;;
41061;SDS011;26812;42.662;23.352;2022-10-15T00:09:51;3.65;;;3.22;;
41061;SDS011;26812;42.662;23.352;2022-10-15T00:12:17;8.60;;;3.58;;
41061;SDS011;26812;42.662;23.352;2022-10-15T00:14:42;4.97;;;3.08;;
41061;SDS011;26812;42.662;23.352;2022-10-15T00:17:07;4.45;;;4.03;;
41061;SDS011;26812;42.662;23.352;2022-10-15T00:19:33;3.63;;;2.88;;
41061;SDS011;26812;42.662;23.352;2022-10-15T00:21:58;3.35;;;3.05;;
41061;SDS011;26812;42.662;23.352;2022-10-15T00:24:24;5.78;;;3.83;;
41061;SDS011;26812;42.662;23.352;2022-10-15T00:26:49;4.10;;;3.22;;
41061;SDS011;26812;42.662;23.352;2022-10-15T00:29:15;5.05;;;3.47;;
41061;SDS011;26812;42.662;23.352;2022-10-15T00:31:40;4.95;;;3.65;;
41061;SDS011;26812;42.662;23.352;2022-10-15T00:34:06;5.80;;;3.83;;
41061;SDS011;26812;42.662;23.352;2022-10-15T00:36:33;7.38;;;3.65;;
41061;SDS011;26812;42.662;23.352;2022-10-15T00:38:59;5.18;;;3.58;;
41061;SDS011;26812;42.662;23.352;2022-10-15T00:41:28;4.13;;;3.42;;
41061;SDS011;26812;42.662;23.352;2022-10-15T00:43:59;5.72;;;3.50;;
41061;SDS011;26812;42.662;23.352;2022-10-15T00:46:29;6.00;;;4.00;;
41061;SDS011;26812;42.662;23.352;2022-10-15T00:48:59;5.07;;;3.88;;
41061;SDS011;26812;42.662;23.352;2022-10-15T00:51:30;5.53;;;3.83;;
41061;SDS011;26812;42.662;23.352;2022-10-15T00:53:59;4.93;;;4.20;;
41061;SDS011;26812;42.662;23.352;2022-10-15T00:56:25;6.78;;;4.55;;
41061;SDS011;26812;42.662;23.352;2022-10-15T00:58:51;8.02;;;4.25;;
41061;SDS011;26812;42.662;23.352;2022-10-15T01:01:19;5.28;;;4.13;;
41061;SDS011;26812;42.662;23.352;2022-10-15T01:03:47;6.18;;;4.40;;
41061;SDS011;26812;42.662;23.352;2022-10-15T01:06:13;5.35;;;4.00;;
41061;SDS011;26812;42.662;23.352;2022-10-15T01:08:38;4.88;;;4.15;;
41061;SDS011;26812;42.662;23.352;2022-10-15T01:16:20;9.45;;;4.72;;
41061;SDS011;26812;42.662;23.352;2022-10-15T01:18:54;5.20;;;4.45;;
41061;SDS011;26812;42.662;23.352;2022-10-15T01:21:31;4.88;;;4.20;;
41061;SDS011;26812;42.662;23.352;2022-10-15T01:29:57;5.95;;;4.07;;
41061;SDS011;26812;42.662;23.352;2022-10-15T01:41:00;5.30;;;4.80;;
41061;SDS011;26812;42.662;23.352;2022-10-15T01:43:36;6.32;;;4.55;;
41061;SDS011;26812;42.662;23.352;2022-10-15T01:46:38;6.32;;;4.25;;
41061;SDS011;26812;42.662;23.352;2022-10-15T01:49:07;5.40;;;4.60;;
41061;SDS011;26812;42.662;23.352;2022-10-15T01:51:35;4.95;;;4.45;;
41061;SDS011;26812;42.662;23.352;2022-10-15T01:54:04;5.97;;;4.68;;
41061;SDS011;26812;42.662;23.352;2022-10-15T01:56:33;5.72;;;5.05;;
41061;SDS011;26812;42.662;23.352;2022-10-15T01:59:01;5.88;;;4.63;;
41061;SDS011;26812;42.662;23.352;2022-10-15T02:01:28;5.72;;;4.65;;
41061;SDS011;26812;42.662;23.352;2022-10-15T02:03:54;7.90;;;4.78;;
41061;SDS011;26812;42.662;23.352;2022-10-15T02:08:51;5.70;;;5.10;;
41061;SDS011;26812;42.662;23.352;2022-10-15T02:11:24;6.30;;;4.90;;
41061;SDS011;26812;42.662;23.352;2022-10-15T02:16:48;5.63;;;4.93;;
41061;SDS011;26812;42.662;23.352;2022-10-15T02:22:05;5.13;;;4.53;;
41061;SDS011;26812;42.662;23.352;2022-10-15T02:25:05;5.95;;;4.78;;
41061;SDS011;26812;42.662;23.352;2022-10-15T02:27:53;7.07;;;5.40;;
41061;SDS011;26812;42.662;23.352;2022-10-15T02:30:21;5.60;;;4.40;;
41061;SDS011;26812;42.662;23.352;2022-10-15T02:32:50;5.28;;;4.78;;
41061;SDS011;26812;42.662;23.352;2022-10-15T02:35:18;5.38;;;4.88;;
41061;SDS011;26812;42.662;23.352;2022-10-15T02:37:46;6.72;;;4.82;;
41061;SDS011;26812;42.662;23.352;2022-10-15T02:40:14;5.20;;;4.70;;
41061;SDS011;26812;42.662;23.352;2022-10-15T02:42:39;8.65;;;5.32;;
41061;SDS011;26812;42.662;23.352;2022-10-15T02:45:05;6.60;;;4.88;;
41061;SDS011;26812;42.662;23.352;2022-10-15T02:47:31;5.35;;;4.30;;
41061;SDS011;26812;42.662;23.352;2022-10-15T02:49:57;7.28;;;4.32;;
41061;SDS011;26812;42.662;23.352;2022-10-15T02:52:22;5.43;;;4.35;;
41061;SDS011;26812;42.662;23.352;2022-10-15T02:54:48;5.47;;;4.78;;
41061;SDS011;26812;42.662;23.352;2022-10-15T02:57:16;7.15;;;4.75;;
41061;SDS011;26812;42.662;23.352;2022-10-15T02:59:42;6.22;;;4.40;;
41061;SDS011;26812;42.662;23.352;2022-10-15T03:02:13;6.35;;;3.92;;
41061;SDS011;26812;42.662;23.352;2022-10-15T03:04:39;6.13;;;5.07;;
41061;SDS011;26812;42.662;23.352;2022-10-15T03:07:04;4.68;;;4.22;;
41061;SDS011;26812;42.662;23.352;2022-10-15T03:09:30;5.20;;;4.70;;
41061;SDS011;26812;42.662;23.352;2022-10-15T03:11:55;5.75;;;4.40;;
41061;SDS011;26812;42.662;23.352;2022-10-15T03:14:21;6.10;;;4.18;;
41061;SDS011;26812;42.662;23.352;2022-10-15T03:16:46;4.97;;;4.55;;
41061;SDS011;26812;42.662;23.352;2022-10-15T03:19:11;6.78;;;4.60;;
41061;SDS011;26812;42.662;23.352;2022-10-15T03:21:37;5.43;;;4.28;;
41061;SDS011;26812;42.662;23.352;2022-10-15T03:24:02;5.80;;;4.55;;
41061;SDS011;26812;42.662;23.352;2022-10-15T03:26:28;6.78;;;4.85;;
41061;SDS011;26812;42.662;23.352;2022-10-15T03:28:53;7.18;;;5.05;;
41061;SDS011;26812;42.662;23.352;2022-10-15T03:31:21;6.63;;;4.75;;
41061;SDS011;26812;42.662;23.352;2022-10-15T03:33:46;5.65;;;4.50;;
41061;SDS011;26812;42.662;23.352;2022-10-15T03:36:12;4.95;;;4.55;;
41061;SDS011;26812;42.662;23.352;2022-10-15T03:38:39;5.30;;;4.47;;
41061;SDS011;26812;42.662;23.352;2022-10-15T03:41:08;5.20;;;4.53;;
41061;SDS011;26812;42.662;23.352;2022-10-15T03:43:33;5.43;;;4.93;;
41061;SDS011;26812;42.662;23.352;2022-10-15T03:46:02;5.53;;;4.93;;
41061;SDS011;26812;42.662;23.352;2022-10-15T03:48:29;9.13;;;5.25;;
41061;SDS011;26812;42.662;23.352;2022-10-15T03:50:55;5.57;;;4.78;;
41061;SDS011;26812;42.662;23.352;2022-10-15T03:53:21;9.48;;;5.70;;
41061;SDS011;26812;42.662;23.352;2022-10-15T03:55:47;9.95;;;5.75;;
41061;SDS011;26812;42.662;23.352;2022-10-15T03:58:13;5.78;;;5.03;;
41061;SDS011;26812;42.662;23.352;2022-10-15T04:00:42;8.73;;;5.53;;
41061;SDS011;26812;42.662;23.352;2022-10-15T04:03:08;7.20;;;4.95;;
41061;SDS011;26812;42.662;23.352;2022-10-15T04:05:34;7.15;;;4.95;;
41061;SDS011;26812;42.662;23.352;2022-10-15T04:08:00;6.72;;;4.97;;
41061;SDS011;26812;42.662;23.352;2022-10-15T04:10:25;5.38;;;4.88;;
41061;SDS011;26812;42.662;23.352;2022-10-15T04:12:51;7.95;;;5.15;;
41061;SDS011;26812;42.662;23.352;2022-10-15T04:15:16;5.47;;;4.40;;
41061;SDS011;26812;42.662;23.352;2022-10-15T04:17:42;5.82;;;4.85;;
41061;SDS011;26812;42.662;23.352;2022-10-15T04:20:07;7.93;;;4.30;;
41061;SDS011;26812;42.662;23.352;2022-10-15T04:22:33;6.20;;;5.10;;
41061;SDS011;26812;42.662;23.352;2022-10-15T04:25:00;5.93;;;4.75;;
41061;SDS011;26812;42.662;23.352;2022-10-15T04:27:26;6.05;;;5.40;;
41061;SDS011;26812;42.662;23.352;2022-10-15T04:29:51;8.05;;;5.28;;
41061;SDS011;26812;42.662;23.352;2022-10-15T04:32:16;6.53;;;5.15;;
41061;SDS011;26812;42.662;23.352;2022-10-15T04:34:42;5.65;;;4.40;;
41061;SDS011;26812;42.662;23.352;2022-10-15T04:37:09;6.30;;;5.03;;
41061;SDS011;26812;42.662;23.352;2022-10-15T04:39:35;9.55;;;5.70;;
41061;SDS011;26812;42.662;23.352;2022-10-15T04:42:00;6.72;;;5.05;;
41061;SDS011;26812;42.662;23.352;2022-10-15T04:44:25;7.70;;;5.80;;
41061;SDS011;26812;42.662;23.352;2022-10-15T04:46:51;7.28;;;6.00;;
41061;SDS011;26812;42.662;23.352;2022-10-15T04:49:16;6.10;;;5.50;;
41061;SDS011;26812;42.662;23.352;2022-10-15T04:51:42;11.70;;;5.88;;
41061;SDS011;26812;42.662;23.352;2022-10-15T04:54:07;6.63;;;5.72;;
41061;SDS011;26812;42.662;23.352;2022-10-15T04:56:33;10.23;;;7.20;;
41061;SDS011;26812;42.662;23.352;2022-10-15T04:59:07;8.23;;;6.57;;
41061;SDS011;26812;42.662;23.352;2022-10-15T05:01:33;8.05;;;5.63;;
41061;SDS011;26812;42.662;23.352;2022-10-15T05:03:59;8.63;;;5.55;;
41061;SDS011;26812;42.662;23.352;2022-10-15T05:06:24;8.18;;;6.45;;
41061;SDS011;26812;42.662;23.352;2022-10-15T05:08:50;8.98;;;5.82;;
41061;SDS011;26812;42.662;23.352;2022-10-15T05:13:42;9.52;;;5.47;;
41061;SDS011;26812;42.662;23.352;2022-10-15T05:16:21;8.95;;;5.97;;
41061;SDS011;26812;42.662;23.352;2022-10-15T05:18:53;8.93;;;5.65;;
41061;SDS011;26812;42.662;23.352;2022-10-15T05:21:21;6.78;;;5.25;;
41061;SDS011;26812;42.662;23.352;2022-10-15T05:23:47;6.60;;;5.30;;
41061;SDS011;26812;42.662;23.352;2022-10-15T05:26:15;6.40;;;5.40;;
41061;SDS011;26812;42.662;23.352;2022-10-15T05:28:44;6.75;;;5.38;;
41061;SDS011;26812;42.662;23.352;2022-10-15T05:31:11;5.82;;;5.22;;
41061;SDS011;26812;42.662;23.352;2022-10-15T05:33:42;7.70;;;5.28;;
41061;SDS011;26812;42.662;23.352;2022-10-15T05:36:12;7.63;;;5.47;;
41061;SDS011;26812;42.662;23.352;2022-10-15T05:38:47;11.65;;;5.82;;
41061;SDS011;26812;42.662;23.352;2022-10-15T05:41:14;8.10;;;5.20;;
41061;SDS011;26812;42.662;23.352;2022-10-15T05:43:40;8.40;;;6.00;;
41061;SDS011;26812;42.662;23.352;2022-10-15T05:46:06;8.65;;;5.65;;
41061;SDS011;26812;42.662;23.352;2022-10-15T05:48:32;9.20;;;6.03;;
41061;SDS011;26812;42.662;23.352;2022-10-15T05:51:01;7.68;;;6.22;;
41061;SDS011;26812;42.662;23.352;2022-10-15T05:53:31;8.15;;;5.88;;
41061;SDS011;26812;42.662;23.352;2022-10-15T05:55:56;7.10;;;6.30;;
41061;SDS011;26812;42.662;23.352;2022-10-15T05:58:23;10.77;;;5.75;;
41061;SDS011;26812;42.662;23.352;2022-10-15T06:00:57;8.05;;;6.13;;
41061;SDS011;26812;42.662;23.352;2022-10-15T06:03:24;7.00;;;5.45;;
41061;SDS011;26812;42.662;23.352;2022-10-15T06:05:50;6.80;;;5.25;;
41061;SDS011;26812;42.662;23.352;2022-10-15T06:08:15;12.60;;;5.88;;
41061;SDS011;26812;42.662;23.352;2022-10-15T06:10:41;7.65;;;6.45;;
41061;SDS011;26812;42.662;23.352;2022-10-15T06:13:07;8.40;;;6.43;;
41061;SDS011;26812;42.662;23.352;2022-10-15T06:15:46;9.40;;;6.22;;
41061;SDS011;26812;42.662;23.352;2022-10-15T06:18:12;8.10;;;5.72;;
41061;SDS011;26812;42.662;23.352;2022-10-15T06:20:40;7.45;;;6.18;;
41061;SDS011;26812;42.662;23.352;2022-10-15T06:23:07;10.35;;;6.47;;
41061;SDS011;26812;42.662;23.352;2022-10-15T06:25:33;6.95;;;5.68;;
41061;SDS011;26812;42.662;23.352;2022-10-15T06:28:05;9.80;;;6.30;;
41061;SDS011;26812;42.662;23.352;2022-10-15T06:30:31;10.15;;;5.75;;
41061;SDS011;26812;42.662;23.352;2022-10-15T06:32:57;7.60;;;5.43;;
41061;SDS011;26812;42.662;23.352;2022-10-15T06:35:23;5.18;;;4.57;;
41061;SDS011;26812;42.662;23.352;2022-10-15T06:37:51;7.07;;;5.65;;
41061;SDS011;26812;42.662;23.352;2022-10-15T06:40:16;11.55;;;6.70;;
41061;SDS011;26812;42.662;23.352;2022-10-15T06:42:42;8.52;;;5.20;;
41061;SDS011;26812;42.662;23.352;2022-10-15T06:45:08;7.05;;;4.72;;
41061;SDS011;26812;42.662;23.352;2022-10-15T06:47:38;7.32;;;5.45;;
41061;SDS011;26812;42.662;23.352;2022-10-15T06:50:04;5.20;;;4.70;;
41061;SDS011;26812;42.662;23.352;2022-10-15T06:52:31;6.20;;;4.97;;
41061;SDS011;26812;42.662;23.352;2022-10-15T06:54:57;7.55;;;5.22;;
41061;SDS011;26812;42.662;23.352;2022-10-15T06:57:23;8.95;;;4.93;;
41061;SDS011;26812;42.662;23.352;2022-10-15T06:59:49;10.05;;;5.03;;
41061;SDS011;26812;42.662;23.352;2022-10-15T07:02:15;8.35;;;5.53;;
41061;SDS011;26812;42.662;23.352;2022-10-15T07:04:43;6.18;;;5.03;;
41061;SDS011;26812;42.662;23.352;2022-10-15T07:07:09;7.50;;;4.72;;
41061;SDS011;26812;42.662;23.352;2022-10-15T07:09:34;5.65;;;4.70;;
41061;SDS011;26812;42.662;23.352;2022-10-15T07:12:00;6.38;;;4.68;;
41061;SDS011;26812;42.662;23.352;2022-10-15T07:14:26;6.95;;;4.93;;
41061;SDS011;26812;42.662;23.352;2022-10-15T07:16:52;4.93;;;4.32;;
41061;SDS011;26812;42.662;23.352;2022-10-15T07:19:17;5.85;;;4.32;;
41061;SDS011;26812;42.662;23.352;2022-10-15T07:21:43;9.77;;;5.38;;
41061;SDS011;26812;42.662;23.352;2022-10-15T07:24:08;7.22;;;4.03;;
41061;SDS011;26812;42.662;23.352;2022-10-15T07:26:34;6.78;;;4.63;;
41061;SDS011;26812;42.662;23.352;2022-10-15T07:28:59;5.25;;;4.35;;
41061;SDS011;26812;42.662;23.352;2022-10-15T07:31:25;6.88;;;4.75;;
41061;SDS011;26812;42.662;23.352;2022-10-15T07:33:51;7.28;;;4.50;;
41061;SDS011;26812;42.662;23.352;2022-10-15T07:36:16;7.05;;;4.78;;
41061;SDS011;26812;42.662;23.352;2022-10-15T07:38:42;6.15;;;4.45;;
41061;SDS011;26812;42.662;23.352;2022-10-15T07:41:08;5.97;;;3.95;;
41061;SDS011;26812;42.662;23.352;2022-10-15T07:43:34;6.00;;;4.15;;
41061;SDS011;26812;42.662;23.352;2022-10-15T07:46:00;5.00;;;4.00;;
41061;SDS011;26812;42.662;23.352;2022-10-15T07:48:27;5.05;;;4.35;;
41061;SDS011;26812;42.662;23.352;2022-10-15T07:50:53;9.18;;;4.55;;
41061;SDS011;26812;42.662;23.352;2022-10-15T07:53:23;5.85;;;5.00;;
41061;SDS011;26812;42.662;23.352;2022-10-15T07:55:48;6.90;;;4.93;;
41061;SDS011;26812;42.662;23.352;2022-10-15T07:58:14;9.05;;;4.10;;
41061;SDS011;26812;42.662;23.352;2022-10-15T08:00:40;7.45;;;4.57;;
41061;SDS011;26812;42.662;23.352;2022-10-15T08:03:05;5.43;;;4.32;;
41061;SDS011;26812;42.662;23.352;2022-10-15T08:05:30;6.35;;;4.50;;
41061;SDS011;26812;42.662;23.352;2022-10-15T08:07:57;6.28;;;4.00;;
41061;SDS011;26812;42.662;23.352;2022-10-15T08:10:23;5.57;;;4.57;;
41061;SDS011;26812;42.662;23.352;2022-10-15T08:12:48;7.20;;;4.30;;
41061;SDS011;26812;42.662;23.352;2022-10-15T08:15:14;5.95;;;4.15;;
41061;SDS011;26812;42.662;23.352;2022-10-15T08:17:39;6.18;;;3.90;;
41061;SDS011;26812;42.662;23.352;2022-10-15T08:20:04;7.40;;;4.40;;
41061;SDS011;26812;42.662;23.352;2022-10-15T08:22:30;6.38;;;4.03;;
41061;SDS011;26812;42.662;23.352;2022-10-15T08:24:57;4.75;;;3.67;;
41061;SDS011;26812;42.662;23.352;2022-10-15T08:27:23;7.50;;;4.45;;
41061;SDS011;26812;42.662;23.352;2022-10-15T08:29:48;4.55;;;3.72;;
41061;SDS011;26812;42.662;23.352;2022-10-15T08:32:13;4.93;;;3.40;;
41061;SDS011;26812;42.662;23.352;2022-10-15T08:34:39;5.47;;;3.38;;
41061;SDS011;26812;42.662;23.352;2022-10-15T08:37:04;3.78;;;3.30;;
41061;SDS011;26812;42.662;23.352;2022-10-15T08:39:30;7.35;;;4.32;;
41061;SDS011;26812;42.662;23.352;2022-10-15T08:41:56;6.47;;;3.80;;
41061;SDS011;26812;42.662;23.352;2022-10-15T08:44:29;5.32;;;3.83;;
41061;SDS011;26812;42.662;23.352;2022-10-15T08:49:46;10.00;;;6.32;;
41061;SDS011;26812;42.662;23.352;2022-10-15T08:52:20;7.43;;;3.65;;
41061;SDS011;26812;42.662;23.352;2022-10-15T08:54:49;4.40;;;3.72;;
41061;SDS011;26812;42.662;23.352;2022-10-15T09:00:19;5.13;;;3.50;;
41061;SDS011;26812;42.662;23.352;2022-10-15T09:02:54;5.97;;;4.07;;
41061;SDS011;26812;42.662;23.352;2022-10-15T09:05:46;5.80;;;4.18;;
41061;SDS011;26812;42.662;23.352;2022-10-15T09:11:12;4.18;;;3.58;;
41061;SDS011;26812;42.662;23.352;2022-10-15T09:14:06;4.50;;;3.47;;
41061;SDS011;26812;42.662;23.352;2022-10-15T09:16:36;5.90;;;3.60;;
41061;SDS011;26812;42.662;23.352;2022-10-15T09:19:05;4.75;;;4.10;;
41061;SDS011;26812;42.662;23.352;2022-10-15T09:21:38;5.05;;;3.83;;
41061;SDS011;26812;42.662;23.352;2022-10-15T09:24:04;5.70;;;3.97;;
41061;SDS011;26812;42.662;23.352;2022-10-15T09:32:17;6.03;;;3.63;;
41061;SDS011;26812;42.662;23.352;2022-10-15T09:34:46;4.30;;;3.55;;
41061;SDS011;26812;42.662;23.352;2022-10-15T09:38:00;4.07;;;2.97;;
41061;SDS011;26812;42.662;23.352;2022-10-15T09:43:26;4.13;;;3.30;;
41061;SDS011;26812;42.662;23.352;2022-10-15T09:45:59;4.85;;;3.05;;
41061;SDS011;26812;42.662;23.352;2022-10-15T09:48:24;3.80;;;2.92;;
41061;SDS011;26812;42.662;23.352;2022-10-15T09:51:03;7.47;;;3.58;;
41061;SDS011;26812;42.662;23.352;2022-10-15T09:53:57;3.60;;;3.28;;
41061;SDS011;26812;42.662;23.352;2022-10-15T09:56:30;4.35;;;3.45;;
41061;SDS011;26812;42.662;23.352;2022-10-15T09:59:01;4.72;;;3.60;;
41061;SDS011;26812;42.662;23.352;2022-10-15T10:01:28;4.45;;;3.85;;
41061;SDS011;26812;42.662;23.352;2022-10-15T10:04:09;4.65;;;3.70;;
41061;SDS011;26812;42.662;23.352;2022-10-15T10:09:22;5.38;;;4.13;;
41061;SDS011;26812;42.662;23.352;2022-10-15T10:11:53;6.15;;;4.03;;
41061;SDS011;26812;42.662;23.352;2022-10-15T10:14:27;6.22;;;4.25;;
41061;SDS011;26812;42.662;23.352;2022-10-15T10:19:44;5.07;;;4.15;;
41061;SDS011;26812;42.662;23.352;2022-10-15T10:22:25;4.03;;;3.63;;
41061;SDS011;26812;42.662;23.352;2022-10-15T10:24:51;4.80;;;3.70;;
41061;SDS011;26812;42.662;23.352;2022-10-15T10:27:20;4.25;;;3.45;;
41061;SDS011;26812;42.662;23.352;2022-10-15T10:29:49;5.80;;;2.95;;
41061;SDS011;26812;42.662;23.352;2022-10-15T10:32:22;4.07;;;3.20;;
41061;SDS011;26812;42.662;23.352;2022-10-15T10:34:52;3.72;;;3.00;;
41061;SDS011;26812;42.662;23.352;2022-10-15T10:37:18;5.00;;;3.72;;
41061;SDS011;26812;42.662;23.352;2022-10-15T10:39:45;4.93;;;3.40;;
41061;SDS011;26812;42.662;23.352;2022-10-15T10:44:42;4.18;;;3.33;;
41061;SDS011;26812;42.662;23.352;2022-10-15T10:47:23;4.78;;;3.08;;
41061;SDS011;26812;42.662;23.352;2022-10-15T10:49:56;4.65;;;3.75;;
41061;SDS011;26812;42.662;23.352;2022-10-15T10:55:36;4.40;;;2.80;;
41061;SDS011;26812;42.662;23.352;2022-10-15T11:00:34;3.20;;;2.90;;
41061;SDS011;26812;42.662;23.352;2022-10-15T11:05:43;3.22;;;2.38;;
41061;SDS011;26812;42.662;23.352;2022-10-15T11:16:18;3.38;;;2.63;;
41061;SDS011;26812;42.662;23.352;2022-10-15T11:26:52;2.42;;;2.22;;
41061;SDS011;26812;42.662;23.352;2022-10-15T11:29:37;6.55;;;3.03;;
41061;SDS011;26812;42.662;23.352;2022-10-15T11:42:59;3.75;;;2.88;;
41061;SDS011;26812;42.662;23.352;2022-10-15T11:45:31;3.67;;;2.60;;
41061;SDS011;26812;42.662;23.352;2022-10-15T11:50:56;5.00;;;2.22;;
41061;SDS011;26812;42.662;23.352;2022-10-15T11:56:22;2.67;;;2.33;;
41061;SDS011;26812;42.662;23.352;2022-10-15T12:01:53;3.58;;;2.30;;
41061;SDS011;26812;42.662;23.352;2022-10-15T12:07:47;5.35;;;2.67;;
41061;SDS011;26812;42.662;23.352;2022-10-15T12:15:59;3.03;;;2.35;;
41061;SDS011;26812;42.662;23.352;2022-10-15T12:18:54;3.17;;;1.88;;
41061;SDS011;26812;42.662;23.352;2022-10-15T12:27:20;3.20;;;1.90;;
41061;SDS011;26812;42.662;23.352;2022-10-15T12:29:48;4.03;;;2.13;;
41061;SDS011;26812;42.662;23.352;2022-10-15T12:32:21;2.95;;;2.38;;
41061;SDS011;26812;42.662;23.352;2022-10-15T12:34:53;3.40;;;3.05;;
41061;SDS011;26812;42.662;23.352;2022-10-15T12:37:24;5.33;;;2.60;;
41061;SDS011;26812;42.662;23.352;2022-10-15T12:39:57;2.50;;;2.30;;
41061;SDS011;26812;42.662;23.352;2022-10-15T12:44:58;2.65;;;2.45;;
41061;SDS011;26812;42.662;23.352;2022-10-15T12:47:46;2.85;;;2.55;;
41061;SDS011;26812;42.662;23.352;2022-10-15T12:50:34;2.60;;;2.25;;
41061;SDS011;26812;42.662;23.352;2022-10-15T12:55:28;3.05;;;2.58;;
41061;SDS011;26812;42.662;23.352;2022-10-15T13:00:48;3.53;;;2.20;;
41061;SDS011;26812;42.662;23.352;2022-10-15T13:08:45;5.40;;;2.40;;
41061;SDS011;26812;42.662;23.352;2022-10-15T13:11:25;2.20;;;1.85;;
41061;SDS011;26812;42.662;23.352;2022-10-15T13:16:31;4.07;;;2.25;;
41061;SDS011;26812;42.662;23.352;2022-10-15T13:18:57;4.00;;;2.22;;
41061;SDS011;26812;42.662;23.352;2022-10-15T13:24:21;4.00;;;2.25;;
41061;SDS011;26812;42.662;23.352;2022-10-15T13:26:48;3.45;;;2.00;;
41061;SDS011;26812;42.662;23.352;2022-10-15T13:29:17;2.95;;;2.40;;
41061;SDS011;26812;42.662;23.352;2022-10-15T13:31:45;3.30;;;2.40;;
41061;SDS011;26812;42.662;23.352;2022-10-15T13:34:25;3.35;;;2.45;;
41061;SDS011;26812;42.662;23.352;2022-10-15T13:36:57;3.45;;;2.47;;
41061;SDS011;26812;42.662;23.352;2022-10-15T13:39:28;2.28;;;2.08;;
41061;SDS011;26812;42.662;23.352;2022-10-15T13:44:33;3.47;;;2.15;;
41061;SDS011;26812;42.662;23.352;2022-10-15T13:46:59;3.08;;;2.22;;
41061;SDS011;26812;42.662;23.352;2022-10-15T13:49:24;3.00;;;2.70;;
41061;SDS011;26812;42.662;23.352;2022-10-15T13:51:50;4.68;;;2.55;;
41061;SDS011;26812;42.662;23.352;2022-10-15T13:54:24;3.33;;;2.53;;
41061;SDS011;26812;42.662;23.352;2022-10-15T13:56:59;4.20;;;2.60;;
41061;SDS011;26812;42.662;23.352;2022-10-15T13:59:26;3.60;;;2.42;;
41061;SDS011;26812;42.662;23.352;2022-10-15T14:01:58;3.78;;;2.60;;
41061;SDS011;26812;42.662;23.352;2022-10-15T14:04:26;4.07;;;2.40;;
41061;SDS011;26812;42.662;23.352;2022-10-15T14:06:58;3.78;;;2.55;;
41061;SDS011;26812;42.662;23.352;2022-10-15T14:11:54;3.30;;;2.60;;
41061;SDS011;26812;42.662;23.352;2022-10-15T14:14:28;3.65;;;2.22;;
41061;SDS011;26812;42.662;23.352;2022-10-15T14:17:12;3.08;;;2.15;;
41061;SDS011;26812;42.662;23.352;2022-10-15T14:19:51;3.47;;;2.58;;
41061;SDS011;26812;42.662;23.352;2022-10-15T14:22:18;3.22;;;2.35;;
41061;SDS011;26812;42.662;23.352;2022-10-15T14:24:48;2.35;;;2.00;;
41061;SDS011;26812;42.662;23.352;2022-10-15T14:27:17;2.63;;;2.30;;
41061;SDS011;26812;42.662;23.352;2022-10-15T14:29:46;2.50;;;2.05;;
41061;SDS011;26812;42.662;23.352;2022-10-15T14:32:22;3.35;;;2.58;;
41061;SDS011;26812;42.662;23.352;2022-10-15T14:34:48;5.82;;;4.88;;
41061;SDS011;26812;42.662;23.352;2022-10-15T14:42:32;4.28;;;2.92;;
41061;SDS011;26812;42.662;23.352;2022-10-15T14:48:17;5.50;;;3.47;;
41061;SDS011;26812;42.662;23.352;2022-10-15T14:50:46;4.10;;;2.65;;
41061;SDS011;26812;42.662;23.352;2022-10-15T14:53:26;7.22;;;3.03;;
41061;SDS011;26812;42.662;23.352;2022-10-15T14:56:27;6.30;;;2.85;;
41061;SDS011;26812;42.662;23.352;2022-10-15T14:58:55;4.97;;;3.92;;
41061;SDS011;26812;42.662;23.352;2022-10-15T15:01:22;3.65;;;2.72;;
41061;SDS011;26812;42.662;23.352;2022-10-15T15:03:49;3.35;;;3.00;;
41061;SDS011;26812;42.662;23.352;2022-10-15T15:06:19;4.95;;;3.17;;
41061;SDS011;26812;42.662;23.352;2022-10-15T15:08:45;3.67;;;2.38;;
41061;SDS011;26812;42.662;23.352;2022-10-15T15:11:14;3.75;;;2.92;;
41061;SDS011;26812;42.662;23.352;2022-10-15T15:13:43;7.95;;;3.35;;
41061;SDS011;26812;42.662;23.352;2022-10-15T15:16:13;4.35;;;3.45;;
41061;SDS011;26812;42.662;23.352;2022-10-15T15:18:40;4.78;;;2.95;;
41061;SDS011;26812;42.662;23.352;2022-10-15T15:21:09;3.88;;;2.45;;
41061;SDS011;26812;42.662;23.352;2022-10-15T15:23:38;3.28;;;2.70;;
41061;SDS011;26812;42.662;23.352;2022-10-15T15:26:05;5.22;;;2.97;;
41061;SDS011;26812;42.662;23.352;2022-10-15T15:28:31;5.57;;;5.07;;
41061;SDS011;26812;42.662;23.352;2022-10-15T15:31:06;3.50;;;3.20;;
41061;SDS011;26812;42.662;23.352;2022-10-15T15:33:36;4.95;;;2.90;;
41061;SDS011;26812;42.662;23.352;2022-10-15T15:36:06;3.28;;;2.97;;
41061;SDS011;26812;42.662;23.352;2022-10-15T15:38:35;4.88;;;3.08;;
41061;SDS011;26812;42.662;23.352;2022-10-15T15:43:39;3.30;;;2.30;;
41061;SDS011;26812;42.662;23.352;2022-10-15T15:46:04;3.40;;;1.95;;
41061;SDS011;26812;42.662;23.352;2022-10-15T15:48:30;5.00;;;2.63;;
41061;SDS011;26812;42.662;23.352;2022-10-15T15:50:57;2.78;;;2.40;;
41061;SDS011;26812;42.662;23.352;2022-10-15T15:53:26;3.42;;;2.28;;
41061;SDS011;26812;42.662;23.352;2022-10-15T15:55:52;2.80;;;2.58;;
41061;SDS011;26812;42.662;23.352;2022-10-15T15:58:17;2.60;;;2.40;;
41061;SDS011;26812;42.662;23.352;2022-10-15T16:00:43;4.85;;;2.97;;
41061;SDS011;26812;42.662;23.352;2022-10-15T16:03:12;3.55;;;2.92;;
41061;SDS011;26812;42.662;23.352;2022-10-15T16:05:38;3.80;;;2.53;;
41061;SDS011;26812;42.662;23.352;2022-10-15T16:08:07;3.80;;;3.08;;
41061;SDS011;26812;42.662;23.352;2022-10-15T16:10:34;3.63;;;2.85;;
41061;SDS011;26812;42.662;23.352;2022-10-15T16:13:00;4.95;;;2.85;;
41061;SDS011;26812;42.662;23.352;2022-10-15T16:15:26;5.25;;;2.25;;
41061;SDS011;26812;42.662;23.352;2022-10-15T16:17:55;3.95;;;2.75;;
41061;SDS011;26812;42.662;23.352;2022-10-15T16:20:23;3.30;;;2.50;;
41061;SDS011;26812;42.662;23.352;2022-10-15T16:22:49;5.75;;;3.47;;
41061;SDS011;26812;42.662;23.352;2022-10-15T16:25:19;4.43;;;3.38;;
41061;SDS011;26812;42.662;23.352;2022-10-15T16:27:45;5.32;;;4.10;;
41061;SDS011;26812;42.662;23.352;2022-10-15T16:30:13;5.22;;;3.85;;
41061;SDS011;26812;42.662;23.352;2022-10-15T16:32:40;8.50;;;5.35;;
41061;SDS011;26812;42.662;23.352;2022-10-15T16:35:05;6.07;;;4.05;;
41061;SDS011;26812;42.662;23.352;2022-10-15T16:37:31;6.13;;;4.03;;
41061;SDS011;26812;42.662;23.352;2022-10-15T16:39:57;6.80;;;3.78;;
41061;SDS011;26812;42.662;23.352;2022-10-15T16:42:22;5.88;;;3.85;;
41061;SDS011;26812;42.662;23.352;2022-10-15T16:44:48;7.30;;;4.10;;
41061;SDS011;26812;42.662;23.352;2022-10-15T16:47:14;6.32;;;4.88;;
41061;SDS011;26812;42.662;23.352;2022-10-15T16:49:39;6.40;;;4.15;;
41061;SDS011;26812;42.662;23.352;2022-10-15T16:52:06;5.85;;;4.18;;
41061;SDS011;26812;42.662;23.352;2022-10-15T16:54:32;5.40;;;4.45;;
41061;SDS011;26812;42.662;23.352;2022-10-15T16:56:58;18.73;;;7.35;;
41061;SDS011;26812;42.662;23.352;2022-10-15T16:59:23;9.10;;;4.60;;
41061;SDS011;26812;42.662;23.352;2022-10-15T17:01:49;6.57;;;4.13;;
41061;SDS011;26812;42.662;23.352;2022-10-15T17:04:14;8.30;;;3.90;;
41061;SDS011;26812;42.662;23.352;2022-10-15T17:06:39;6.63;;;4.40;;
41061;SDS011;26812;42.662;23.352;2022-10-15T17:09:05;8.20;;;4.60;;
41061;SDS011;26812;42.662;23.352;2022-10-15T17:11:39;7.00;;;4.22;;